Monterey, CA

4:07 PM PDT on August 27, 2015 (GMT -0700)
Monterey Peninsula | | Change Station
CLOSE
Current Station
Airport
Location: Monterey,
Elevation: 253 ft
Nearby Weather Stations

Elev 253 ft 36.59 °N, 121.84 °W | Updated 13 minutes ago

Clear
Clear
78 °F
Feels Like 78 °F
N
7
Wind Variable Wind from West

Today
High -- | Low -- °F
--% Chance of Precip.
Yesterday
High -- | Low -- °F
Precip. -- in
6:34 AM 7:42 PM
Waxing Gibbous, 95% visible
Pressure 30.05 in
Visibility 10.0 miles
Clouds Clear
Dew Point 46 °F
Humidity 32%
Rainfall 0.00 in
Snow Depth Not available.
UV 6 out of 12
Pollen 6.50 out of 12
Air Quality Not available.
Flu Activity Not available.
METAR KMRY 272254Z 28006KT 10SM CLR 26/08 A3002 RMK AO2 SLP176 T02560078
Pressure 30.05 in
Visibility 10.0 miles
Clouds Clear
Dew Point 46 °F
Humidity 32%
Rainfall 0.00 in
Snow Depth Not available.
UV 6 out of 12
Pollen 6.50 out of 12
Air Quality Not available.
Flu Activity Not available.
METAR KMRY 272254Z 28006KT 10SM CLR 26/08 A3002 RMK AO2 SLP176 T02560078

10-Day Weather Forecast

×

Almanac

Astronomy

Aug. 27, 2015 Rise Set
Actual Time
Civil Twilight
Nautical Twilight
Astronomical Twilight
Moon
Length of Visible Light
Length of Day
Tomorrow will be .
, % of the Moon is Illuminated

Today's Extremes

State Highs State Lows

Community

WunderPhotos

Upload Photos

1,850,256 photos uploaded!

WunderBlogs® & News

Nearby

Air Quality

  Air Quality AQ Index Pollutant
Not available.

Snow Depth

Station Depth Elevation

Earthquake Activity

City Distance Mag. Time & Date
Minimum magnitude displayed is 2.5.

Coastal Water Temperatures

Place Temperature

Stations

Nearby Weather Stations

Station Location Temp. Windchill Dew Point Humidity Wind Precip. Elev Updated Type